createdAt,value
2019-05-17T00:02:19.169Z,11.60
2019-05-17T00:04:49.309Z,11.54
2019-05-17T00:07:19.050Z,11.58
2019-05-17T00:09:48.713Z,11.40
2019-05-17T00:12:18.366Z,11.40
2019-05-17T00:14:48.042Z,11.49
2019-05-17T00:17:17.698Z,11.38
2019-05-17T00:19:47.412Z,11.33
2019-05-17T00:22:17.067Z,11.28
2019-05-17T00:24:47.779Z,11.39
2019-05-17T00:27:17.546Z,11.55
2019-05-17T00:29:48.201Z,11.62
2019-05-17T00:32:19.503Z,11.67
2019-05-17T00:34:49.429Z,11.38
2019-05-17T00:37:19.072Z,11.38
2019-05-17T00:39:50.367Z,11.47
2019-05-17T00:42:20.008Z,11.55
2019-05-17T00:44:51.205Z,11.47
2019-05-17T00:47:20.852Z,11.56
2019-05-17T00:49:50.503Z,11.53
2019-05-17T00:52:20.176Z,11.55
2019-05-17T00:54:49.875Z,11.60
2019-05-17T00:57:19.516Z,11.46
2019-05-17T00:59:49.169Z,11.50
2019-05-17T01:02:18.832Z,11.24
2019-05-17T01:04:48.480Z,11.41
2019-05-17T01:07:18.141Z,11.31
2019-05-17T01:09:47.794Z,11.25
2019-05-17T01:12:17.453Z,11.25
2019-05-17T01:14:47.101Z,11.32
2019-05-17T01:17:16.833Z,11.49
2019-05-17T01:19:47.224Z,11.44
2019-05-17T01:22:17.091Z,11.42
2019-05-17T01:24:46.847Z,11.40
2019-05-17T01:27:17.287Z,11.43
2019-05-17T01:29:47.033Z,11.39
2019-05-17T01:32:17.345Z,11.45
2019-05-17T01:34:47.165Z,11.45
2019-05-17T01:37:17.880Z,11.54
2019-05-17T01:39:47.542Z,11.44
2019-05-17T01:42:17.377Z,11.53
2019-05-17T01:44:48.448Z,11.46
2019-05-17T01:47:18.097Z,11.41
2019-05-17T01:49:47.814Z,11.30
2019-05-17T01:52:17.477Z,11.44
2019-05-17T01:54:47.157Z,11.46
2019-05-17T01:57:17.050Z,11.38
2019-05-17T01:59:46.870Z,11.47
2019-05-17T02:02:18.353Z,11.33
2019-05-17T02:04:49.692Z,11.29
2019-05-17T02:07:19.345Z,11.18
2019-05-17T02:09:49.476Z,11.37
2019-05-17T02:12:19.210Z,11.02
2019-05-17T02:14:50.086Z,11.21
2019-05-17T02:17:20.864Z,11.37
2019-05-17T02:19:50.542Z,11.32
2019-05-17T02:22:20.279Z,10.94
2019-05-17T02:24:49.955Z,10.77
2019-05-17T02:27:21.986Z,10.87
2019-05-17T02:29:51.949Z,10.86
2019-05-17T02:32:23.510Z,11.13
2019-05-17T02:34:53.335Z,11.06
2019-05-17T02:37:24.515Z,11.01
2019-05-17T02:40:02.823Z,11.19
2019-05-17T02:42:25.558Z,11.30
2019-05-17T02:44:55.290Z,11.23
2019-05-17T02:47:24.949Z,11.04
2019-05-17T02:49:54.686Z,11.12
2019-05-17T02:52:24.518Z,11.19
2019-05-17T02:54:54.686Z,11.31
2019-05-17T02:57:26.497Z,11.38
2019-05-17T02:59:56.151Z,11.18
2019-05-17T03:03:13.406Z,11.23
2019-05-17T03:05:43.205Z,11.29
2019-05-17T03:08:12.922Z,11.31
2019-05-17T03:10:43.451Z,10.98
2019-05-17T03:13:17.127Z,10.96
2019-05-17T03:15:44.514Z,11.15
2019-05-17T03:18:14.198Z,11.22
2019-05-17T03:20:43.861Z,11.17
2019-05-17T03:23:13.534Z,11.28
2019-05-17T03:25:44.000Z,11.21
2019-05-17T03:28:13.910Z,11.14
2019-05-17T03:30:46.892Z,10.96
2019-05-17T03:33:17.095Z,11.17
2019-05-17T03:35:47.421Z,11.18
2019-05-17T03:38:18.290Z,11.16
2019-05-17T03:41:07.266Z,10.86
2019-05-17T03:43:22.416Z,10.89
2019-05-17T03:45:53.365Z,10.70
2019-05-17T03:48:22.370Z,10.93
2019-05-17T03:50:53.565Z,10.73
2019-05-17T03:53:23.308Z,10.90
2019-05-17T03:55:54.069Z,11.10
2019-05-17T03:58:24.004Z,11.05
2019-05-17T04:00:53.787Z,11.18
2019-05-17T04:03:25.042Z,10.81
2019-05-17T04:05:54.697Z,11.14
2019-05-17T04:08:24.360Z,11.27
2019-05-17T04:10:54.007Z,11.27
2019-05-17T04:13:23.852Z,11.21
2019-05-17T04:15:53.622Z,11.45
2019-05-17T04:18:23.691Z,11.06
2019-05-17T04:20:53.476Z,11.15
2019-05-17T04:23:23.529Z,11.29
2019-05-17T04:25:53.498Z,11.29
2019-05-17T04:28:23.366Z,11.26
2019-05-17T04:30:53.138Z,11.22
2019-05-17T04:33:23.504Z,11.21
2019-05-17T04:35:54.100Z,11.30
2019-05-17T04:38:24.216Z,11.30
2019-05-17T04:40:54.223Z,11.51
2019-05-17T04:43:23.852Z,11.48
2019-05-17T04:45:53.942Z,11.59
2019-05-17T04:48:25.371Z,11.47
2019-05-17T04:50:55.033Z,11.43
2019-05-17T04:53:24.667Z,11.47
2019-05-17T04:55:54.379Z,11.28
2019-05-17T04:58:24.113Z,11.40
2019-05-17T05:00:54.062Z,11.45
2019-05-17T05:03:23.879Z,11.47
2019-05-17T05:05:54.853Z,11.55
2019-05-17T05:08:24.587Z,11.47
2019-05-17T05:10:54.250Z,11.64
2019-05-17T05:13:23.902Z,11.77
2019-05-17T05:15:53.550Z,11.47
2019-05-17T05:18:24.435Z,11.58
2019-05-17T05:20:54.105Z,11.72
2019-05-17T05:23:24.192Z,11.62
2019-05-17T05:25:53.911Z,11.54
2019-05-17T05:28:23.568Z,11.66
2019-05-17T05:30:53.262Z,11.70
2019-05-17T05:33:22.928Z,11.74
2019-05-17T05:35:52.666Z,12.05
2019-05-17T05:38:22.333Z,11.83
2019-05-17T05:40:52.272Z,11.85
2019-05-17T05:43:22.712Z,11.85
2019-05-17T05:45:53.631Z,11.81
2019-05-17T05:48:23.361Z,11.78
2019-05-17T05:50:53.038Z,11.89
2019-05-17T05:53:22.711Z,11.92
2019-05-17T05:55:52.365Z,11.94
2019-05-17T05:58:24.111Z,11.93
2019-05-17T06:00:53.813Z,11.93
2019-05-17T06:03:23.490Z,11.81
2019-05-17T06:05:53.149Z,12.10
2019-05-17T06:08:23.070Z,12.21
2019-05-17T06:10:53.337Z,12.27
2019-05-17T06:13:23.014Z,12.47
2019-05-17T06:15:52.682Z,12.37
2019-05-17T06:18:22.785Z,12.51
2019-05-17T06:20:52.609Z,12.45
2019-05-17T06:23:23.453Z,12.40
2019-05-17T06:25:53.367Z,12.45
2019-05-17T06:28:23.096Z,12.40
2019-05-17T06:30:52.771Z,12.54
2019-05-17T06:33:30.713Z,12.52
2019-05-17T06:35:53.820Z,12.70
2019-05-17T06:38:23.476Z,12.60
2019-05-17T06:40:53.143Z,12.74
2019-05-17T06:43:22.833Z,12.69
2019-05-17T06:45:52.496Z,12.64
2019-05-17T06:48:23.086Z,12.81
2019-05-17T06:50:52.881Z,12.86
2019-05-17T06:53:22.616Z,12.83
2019-05-17T06:55:53.434Z,12.72
2019-05-17T06:58:23.237Z,12.81
2019-05-17T07:00:52.911Z,12.75
2019-05-17T07:03:22.578Z,12.96
2019-05-17T07:05:56.288Z,12.99
2019-05-17T07:08:25.956Z,12.98
2019-05-17T07:10:55.626Z,13.19
2019-05-17T07:13:25.297Z,13.10
2019-05-17T07:15:54.964Z,13.35
2019-05-17T07:18:24.628Z,12.81
2019-05-17T07:20:54.296Z,13.25
2019-05-17T07:23:24.035Z,13.61
2019-05-17T07:25:53.708Z,13.61
2019-05-17T07:28:23.372Z,13.88
2019-05-17T07:30:54.562Z,13.77
2019-05-17T07:33:24.210Z,14.06
2019-05-17T07:35:53.858Z,13.70
2019-05-17T07:38:23.522Z,14.04
2019-05-17T07:40:53.245Z,14.24
2019-05-17T07:43:22.895Z,14.23
2019-05-17T07:45:52.553Z,14.21
2019-05-17T07:48:22.204Z,14.50
2019-05-17T07:50:51.851Z,14.33
2019-05-17T07:53:21.510Z,14.64
2019-05-17T07:55:51.205Z,14.93
2019-05-17T07:58:21.496Z,14.65
2019-05-17T08:00:51.636Z,14.86
2019-05-17T08:03:24.730Z,14.68
2019-05-17T08:05:52.757Z,14.56
2019-05-17T08:08:22.412Z,14.40
2019-05-17T08:10:52.089Z,14.51
2019-05-17T08:13:29.875Z,14.49
2019-05-17T08:15:53.144Z,14.51
2019-05-17T08:18:22.801Z,14.88
2019-05-17T08:20:53.975Z,14.57
2019-05-17T08:23:23.720Z,14.81
2019-05-17T08:25:56.201Z,14.79
2019-05-17T08:28:27.198Z,14.91
2019-05-17T08:30:56.264Z,14.78
2019-05-17T08:33:25.932Z,14.99
2019-05-17T08:35:55.598Z,14.95
2019-05-17T08:38:26.799Z,15.03
2019-05-17T08:40:57.133Z,15.06
2019-05-17T08:43:38.262Z,15.17
2019-05-17T08:45:59.396Z,15.14
2019-05-17T08:48:29.693Z,15.36
2019-05-17T08:51:00.138Z,15.07
2019-05-17T08:53:30.541Z,15.39
2019-05-17T08:56:01.104Z,15.53
2019-05-17T08:58:31.523Z,15.60
2019-05-17T09:01:01.186Z,15.30
2019-05-17T09:03:30.870Z,15.25
2019-05-17T09:06:02.010Z,15.48
2019-05-17T09:08:31.919Z,15.32
2019-05-17T09:11:02.073Z,15.46
2019-05-17T09:13:31.719Z,15.89
2019-05-17T09:16:01.387Z,16.22
2019-05-17T09:18:31.055Z,16.52
2019-05-17T09:21:01.726Z,16.73
2019-05-17T09:23:31.467Z,16.91
2019-05-17T09:26:01.198Z,17.49
2019-05-17T09:28:30.872Z,17.70
2019-05-17T09:31:00.607Z,17.56
2019-05-17T09:33:30.393Z,17.81
2019-05-17T09:36:00.707Z,18.02
2019-05-17T09:38:30.737Z,17.73
2019-05-17T09:41:00.473Z,17.75
2019-05-17T09:43:30.211Z,17.71
2019-05-17T09:46:01.647Z,17.64
2019-05-17T09:48:31.443Z,17.62
2019-05-17T09:51:01.605Z,17.67
2019-05-17T09:53:31.275Z,17.71
2019-05-17T09:56:01.136Z,17.73
2019-05-17T09:58:31.031Z,18.01
2019-05-17T10:01:01.570Z,18.46
2019-05-17T10:03:31.419Z,18.26
2019-05-17T10:06:01.079Z,18.05
2019-05-17T10:08:30.730Z,17.91
2019-05-17T10:11:08.546Z,18.17
2019-05-17T10:13:31.797Z,18.26
2019-05-17T10:16:01.575Z,18.52
2019-05-17T10:18:31.610Z,18.40
2019-05-17T10:21:02.722Z,18.48
2019-05-17T10:23:32.413Z,18.23
2019-05-17T10:26:02.074Z,18.52
2019-05-17T10:28:31.793Z,18.88
2019-05-17T10:31:02.407Z,18.84
2019-05-17T10:33:32.393Z,19.39
2019-05-17T10:36:02.044Z,19.89
2019-05-17T10:38:31.711Z,20.22
2019-05-17T10:41:01.373Z,19.76
2019-05-17T10:43:31.031Z,19.40
2019-05-17T10:46:00.745Z,19.12
2019-05-17T10:48:30.414Z,19.02
2019-05-17T10:51:00.477Z,19.05
2019-05-17T10:53:30.202Z,19.37
2019-05-17T10:56:01.424Z,19.44
2019-05-17T10:58:31.093Z,19.65
2019-05-17T11:01:01.032Z,19.90
2019-05-17T11:03:30.683Z,19.83
2019-05-17T11:06:00.332Z,19.62
2019-05-17T11:08:29.999Z,19.78
2019-05-17T11:10:59.778Z,19.58
2019-05-17T11:13:29.391Z,19.73
2019-05-17T11:15:59.076Z,19.81
2019-05-17T11:18:30.310Z,19.38
2019-05-17T11:20:59.965Z,19.74
2019-05-17T11:23:29.631Z,19.46
2019-05-17T11:25:59.289Z,19.99
2019-05-17T11:28:29.007Z,20.00
2019-05-17T11:30:58.691Z,20.22
2019-05-17T11:33:28.399Z,20.46
2019-05-17T11:35:58.120Z,20.39
2019-05-17T11:38:27.785Z,20.25
2019-05-17T11:40:58.953Z,20.65
2019-05-17T11:43:30.208Z,20.13
2019-05-17T11:46:00.153Z,20.47
2019-05-17T11:48:29.800Z,19.98
2019-05-17T11:50:59.457Z,20.02
2019-05-17T11:53:29.105Z,20.04
2019-05-17T11:55:58.790Z,20.08
2019-05-17T11:58:28.441Z,20.16
2019-05-17T12:00:58.099Z,20.22
2019-05-17T12:03:29.276Z,20.37
2019-05-17T12:05:58.942Z,20.39
2019-05-17T12:08:28.595Z,20.57
2019-05-17T12:10:58.397Z,20.79
2019-05-17T12:13:28.662Z,20.65
2019-05-17T12:15:58.326Z,21.22
2019-05-17T12:18:27.995Z,21.19
2019-05-17T12:20:57.652Z,21.05
2019-05-17T12:23:27.308Z,20.81
2019-05-17T12:25:57.050Z,20.70
2019-05-17T12:28:27.466Z,21.58
2019-05-17T12:30:57.122Z,22.21
2019-05-17T12:33:26.794Z,22.30
2019-05-17T12:35:56.440Z,22.30
2019-05-17T12:38:27.449Z,23.40
2019-05-17T12:40:57.124Z,24.10
2019-05-17T12:43:26.772Z,23.98
2019-05-17T12:46:00.547Z,22.97
2019-05-17T12:48:28.848Z,22.37
2019-05-17T12:51:00.145Z,22.11
2019-05-17T12:53:29.810Z,23.59
2019-05-17T12:56:00.501Z,23.99
2019-05-17T12:58:30.171Z,23.26
2019-05-17T13:00:59.812Z,23.74
2019-05-17T13:03:29.470Z,24.35
2019-05-17T13:05:59.138Z,25.22
2019-05-17T13:08:28.817Z,25.69
2019-05-17T13:10:58.466Z,28.26
2019-05-17T13:13:28.129Z,31.32
2019-05-17T13:15:57.789Z,34.36
2019-05-17T13:18:28.025Z,35.12
2019-05-17T13:20:58.250Z,33.13
2019-05-17T13:23:28.492Z,33.82
2019-05-17T13:25:58.724Z,34.64
2019-05-17T13:28:28.962Z,35.75
2019-05-17T13:31:00.738Z,32.79
2019-05-17T13:33:31.007Z,33.09
2019-05-17T13:36:01.224Z,36.07
2019-05-17T13:38:31.476Z,30.52
2019-05-17T13:41:01.740Z,29.15
2019-05-17T13:43:32.058Z,30.89
2019-05-17T13:46:02.326Z,32.33
2019-05-17T13:48:32.526Z,33.68
2019-05-17T13:51:02.853Z,35.88
2019-05-17T13:53:33.092Z,39.00
2019-05-17T13:56:03.346Z,37.64
2019-05-17T13:58:33.579Z,38.73
2019-05-17T14:01:05.139Z,39.89
2019-05-17T14:03:35.346Z,38.95
2019-05-17T14:06:05.408Z,42.44
2019-05-17T14:08:35.486Z,41.17
2019-05-17T14:11:05.981Z,40.63
2019-05-17T14:13:35.939Z,42.11
2019-05-17T14:16:06.213Z,41.50
2019-05-17T14:18:36.155Z,40.98
2019-05-17T14:27:42.068Z,43.38
2019-05-17T14:30:12.188Z,42.71
2019-05-17T14:32:41.876Z,43.53
2019-05-17T14:35:14.769Z,37.49
2019-05-17T14:37:44.353Z,38.18
2019-05-17T14:40:14.540Z,41.00
2019-05-17T14:42:44.106Z,39.94
2019-05-17T14:45:15.355Z,42.21
2019-05-17T14:47:44.937Z,38.36
2019-05-17T14:50:15.101Z,32.16
2019-05-17T14:52:44.668Z,29.86
2019-05-17T14:55:14.295Z,29.92
2019-05-17T14:57:43.874Z,32.60
2019-05-17T15:00:13.774Z,35.02
2019-05-17T15:02:44.897Z,36.00
2019-05-17T15:05:15.836Z,34.24
2019-05-17T15:07:45.342Z,36.17
2019-05-17T15:10:18.136Z,40.58
2019-05-17T15:12:48.726Z,39.77
2019-05-17T15:15:25.496Z,39.14
2019-05-17T15:17:50.213Z,36.12
2019-05-17T15:20:19.859Z,36.01
2019-05-17T15:22:49.420Z,39.18
2019-05-17T15:25:18.988Z,40.35
2019-05-17T15:27:48.547Z,38.69
2019-05-17T15:30:18.182Z,34.30
2019-05-17T15:32:47.756Z,37.26
2019-05-17T15:35:17.361Z,38.80
2019-05-17T15:37:46.903Z,35.14
2019-05-17T15:40:16.623Z,33.71
2019-05-17T15:42:46.228Z,31.47
2019-05-17T15:45:15.870Z,28.87
2019-05-17T15:47:47.048Z,28.33
2019-05-17T15:50:16.954Z,28.48
2019-05-17T15:52:46.523Z,28.41
2019-05-17T15:55:16.327Z,27.99
2019-05-17T15:57:45.896Z,27.12
2019-05-17T16:00:16.580Z,26.58
2019-05-17T16:02:46.185Z,27.01
2019-05-17T16:05:16.290Z,26.54
2019-05-17T16:07:45.935Z,27.01
2019-05-17T16:10:16.026Z,26.37
2019-05-17T16:13:00.994Z,25.91
2019-05-17T16:15:17.185Z,25.82
2019-05-17T16:17:46.898Z,26.22
2019-05-17T16:20:17.239Z,26.28
2019-05-17T16:22:46.890Z,26.45
2019-05-17T16:25:16.594Z,25.26
2019-05-17T16:27:46.167Z,25.93
2019-05-17T16:30:15.866Z,25.09
2019-05-17T16:32:45.445Z,24.81
2019-05-17T16:35:15.144Z,24.09
2019-05-17T16:37:44.734Z,24.41
2019-05-17T16:40:14.777Z,23.95
2019-05-17T16:42:44.344Z,23.47
2019-05-17T16:45:18.826Z,23.54
2019-05-17T16:47:48.458Z,23.19
2019-05-17T16:50:20.069Z,23.10
2019-05-17T16:53:04.707Z,23.05
2019-05-17T16:55:20.938Z,22.91
2019-05-17T16:57:50.496Z,22.87
2019-05-17T17:00:40.001Z,22.96
2019-05-17T17:03:09.912Z,22.97
2019-05-17T17:05:39.558Z,22.82
2019-05-17T17:08:09.248Z,22.92
2019-05-17T17:10:38.965Z,22.59
2019-05-17T17:13:08.660Z,22.49
2019-05-17T17:15:38.240Z,22.44
2019-05-17T17:18:07.818Z,22.72
2019-05-17T17:20:37.392Z,22.59
2019-05-17T17:23:07.032Z,22.52
2019-05-17T17:25:36.591Z,22.35
2019-05-17T17:28:06.319Z,22.15
2019-05-17T17:30:35.902Z,21.91
2019-05-17T17:33:05.673Z,21.77
2019-05-17T17:35:35.319Z,21.49
2019-05-17T17:38:04.897Z,21.66
2019-05-17T17:40:34.544Z,21.66
2019-05-17T17:43:04.138Z,21.65
2019-05-17T17:45:33.811Z,21.77
2019-05-17T17:48:03.373Z,21.65
2019-05-17T17:50:33.085Z,21.75
2019-05-17T17:53:02.879Z,21.60
2019-05-17T17:55:32.518Z,21.52
2019-05-17T17:58:02.086Z,21.49
2019-05-17T18:00:31.647Z,21.49
2019-05-17T18:03:02.775Z,21.42
2019-05-17T18:05:32.331Z,21.46
2019-05-17T18:08:01.927Z,21.12
2019-05-17T18:10:34.304Z,21.11
2019-05-17T18:13:03.937Z,21.13
2019-05-17T18:15:46.120Z,21.20
2019-05-17T18:18:16.124Z,21.04
2019-05-17T18:20:45.840Z,20.89
2019-05-17T18:23:19.713Z,20.81
2019-05-17T18:25:46.903Z,20.76
2019-05-17T18:28:16.535Z,20.66
2019-05-17T18:30:46.139Z,20.61
2019-05-17T18:33:15.681Z,20.67
2019-05-17T18:35:45.320Z,20.59
2019-05-17T18:38:17.999Z,20.51
2019-05-17T18:40:47.682Z,20.52
2019-05-17T18:43:17.229Z,20.43
2019-05-17T18:45:46.939Z,20.24
2019-05-17T18:48:16.583Z,20.22
2019-05-17T18:50:46.154Z,20.14
2019-05-17T18:53:16.931Z,20.06
2019-05-17T18:55:46.993Z,20.00
2019-05-17T18:58:16.560Z,19.82
2019-05-17T19:00:47.732Z,19.82
2019-05-17T19:03:17.353Z,19.79
2019-05-17T19:05:46.978Z,19.76
2019-05-17T19:08:16.554Z,19.64
2019-05-17T19:10:47.244Z,19.64
2019-05-17T19:13:16.813Z,19.60
2019-05-17T19:15:46.756Z,19.46
2019-05-17T19:18:16.395Z,19.38
2019-05-17T19:20:46.297Z,19.37
2019-05-17T19:23:15.938Z,19.23
2019-05-17T19:25:45.498Z,19.23
2019-05-17T19:28:15.055Z,19.25
2019-05-17T19:30:46.134Z,18.97
2019-05-17T19:33:15.711Z,19.16
2019-05-17T19:35:45.344Z,19.01
2019-05-17T19:38:14.899Z,18.98
2019-05-17T19:40:44.540Z,19.11
2019-05-17T19:43:14.119Z,18.95
2019-05-17T19:45:44.311Z,19.07
2019-05-17T19:48:13.893Z,18.96
2019-05-17T19:50:45.461Z,18.84
2019-05-17T19:53:14.773Z,18.75
2019-05-17T19:55:44.426Z,18.73
2019-05-17T19:58:13.983Z,18.64
2019-05-17T20:00:43.623Z,18.70
2019-05-17T20:03:13.260Z,18.66
2019-05-17T20:05:42.808Z,18.53
2019-05-17T20:08:12.436Z,18.52
2019-05-17T20:10:42.469Z,18.51
2019-05-17T20:13:12.027Z,18.53
2019-05-17T20:15:41.616Z,18.50
2019-05-17T20:18:11.469Z,18.40
2019-05-17T20:20:41.092Z,18.38
2019-05-17T20:23:10.672Z,18.20
2019-05-17T20:25:40.234Z,18.28
2019-05-17T20:28:10.521Z,18.35
2019-05-17T20:30:40.079Z,18.34
2019-05-17T20:33:09.648Z,18.20
2019-05-17T20:35:39.284Z,18.28
2019-05-17T20:38:08.853Z,18.34
2019-05-17T20:40:38.427Z,18.29
2019-05-17T20:43:09.021Z,18.07
2019-05-17T20:45:38.600Z,18.02
2019-05-17T20:48:08.173Z,17.72
2019-05-17T20:50:37.752Z,17.74
2019-05-17T20:53:18.299Z,17.81
2019-05-17T20:55:38.606Z,17.80
2019-05-17T20:58:08.166Z,17.75
2019-05-17T21:00:37.731Z,17.72
2019-05-17T21:03:07.361Z,17.80
2019-05-17T21:05:36.975Z,17.74
2019-05-17T21:08:06.606Z,17.74
2019-05-17T21:10:36.202Z,17.82
2019-05-17T21:13:05.758Z,17.74
2019-05-17T21:15:47.010Z,17.55
2019-05-17T21:18:06.668Z,17.65
2019-05-17T21:20:36.231Z,17.35
2019-05-17T21:23:05.860Z,17.18
2019-05-17T21:25:35.426Z,17.35
2019-05-17T21:28:05.010Z,17.01
2019-05-17T21:30:34.571Z,17.48
2019-05-17T21:33:04.145Z,17.48
2019-05-17T21:35:33.733Z,17.17
2019-05-17T21:38:03.300Z,17.37
2019-05-17T21:40:32.930Z,17.31
2019-05-17T21:43:02.494Z,17.38
2019-05-17T21:45:32.068Z,17.33
2019-05-17T21:48:01.617Z,17.26
2019-05-17T21:50:31.189Z,17.15
2019-05-17T21:53:00.750Z,17.10
2019-05-17T21:55:30.333Z,17.04
2019-05-17T21:57:59.900Z,17.01
2019-05-17T22:00:50.088Z,17.00
2019-05-17T22:03:19.643Z,16.86
2019-05-17T22:05:49.278Z,16.78
2019-05-17T22:08:18.841Z,16.94
2019-05-17T22:10:48.614Z,16.95
2019-05-17T22:13:18.189Z,16.45
2019-05-17T22:15:47.750Z,16.52
2019-05-17T22:18:18.785Z,16.52
2019-05-17T22:20:48.433Z,16.71
2019-05-17T22:23:17.999Z,16.66
2019-05-17T22:25:47.560Z,16.55
2019-05-17T22:28:17.125Z,16.73
2019-05-17T22:30:46.723Z,16.61
2019-05-17T22:33:16.310Z,16.49
2019-05-17T22:35:45.882Z,16.48
2019-05-17T22:38:15.440Z,16.46
2019-05-17T22:40:46.492Z,16.35
2019-05-17T22:43:16.099Z,16.13
2019-05-17T22:45:45.667Z,15.99
2019-05-17T22:48:15.231Z,16.29
2019-05-17T22:50:45.427Z,16.23
2019-05-17T22:53:14.979Z,16.12
2019-05-17T22:55:44.607Z,15.78
2019-05-17T22:58:14.176Z,15.82
2019-05-17T23:00:43.805Z,15.61
2019-05-17T23:03:13.373Z,15.84
2019-05-17T23:05:42.935Z,15.94
2019-05-17T23:08:12.572Z,15.68
2019-05-17T23:10:43.679Z,15.61
2019-05-17T23:13:13.948Z,15.62
2019-05-17T23:16:03.357Z,15.40
2019-05-17T23:18:34.321Z,15.30
2019-05-17T23:21:04.377Z,15.36
2019-05-17T23:23:33.959Z,15.50
2019-05-17T23:26:05.043Z,15.53
2019-05-17T23:28:34.593Z,15.39
2019-05-17T23:31:04.318Z,15.35
2019-05-17T23:33:33.883Z,15.42
2019-05-17T23:36:03.456Z,15.16
2019-05-17T23:38:34.562Z,15.22
2019-05-17T23:41:04.130Z,15.20
2019-05-17T23:43:33.695Z,15.33
2019-05-17T23:46:03.291Z,15.43
2019-05-17T23:48:32.911Z,15.05
2019-05-17T23:51:02.479Z,14.90
2019-05-17T23:53:32.165Z,14.74
2019-05-17T23:56:01.687Z,15.05
2019-05-17T23:58:31.385Z,15.05
